Terminal Aerodrome Forecast
Issued by NWS Jackson, MS

Home | Current Version | Previous Version | Text Only | Print | Product List | Glossary On
Versions: 1 2 3 4 5 6 7 8 9 10 11 12
219
FTUS44 KJAN 161738
TAFHBG
TAF
KHBG 161738Z 1618/1718 13004KT P6SM BKN100
     FM170900 15006KT P6SM BKN015 OVC025
     FM171200 15010KT P6SM -SHRA OVC007=

USA.gov is the U.S. government's official web portal to all federal, state and local government web resources and services.